Fume Blanc Commodore — WDD5259 — position and weather

sailwx.info

Track history (hours):
 
Tides and Currents Weather Stations Pressure Air Temp Water Temp Dewpoint Dewpoint Depression Visibility Wind Speed Wind Dir Waves Ship Positions

Fume Blanc Commodore

Owner: Commodore Dining Cruises, Alameda, CA. More information available from US FCC via Universal Licensing System and Coast Guard Vessel Documentation Center.

Last reported at 2017-Oct-09 00:14 UTC. Time now 2017-Oct-17 13:47 UTC.
Position N 37°48' W 122°17'.
Warning: this ship's position is 8 days out of date.

Length 26 m; draft 1.5 m.

Type: Passenger vessel. MMSI: 367155780.

Date/timePositionNaut miles runAvg speedWind from/ knotsBaromVisibWave heightAir tempDewpointWater temp
2017-Oct-09 00:14N 37°48' W 122°17'1 2.4
2017-Oct-09 00:00N 37°48' W 122°17'3 6.8
2017-Oct-08 23:30N 37°48' W 122°22'2 4.9
2017-Oct-08 23:00N 37°50' W 122°24'1 1.2
2017-Oct-08 22:30N 37°50' W 122°25'0 0.3
2017-Oct-08 22:00N 37°49' W 122°25'1 3.0
2017-Oct-08 21:30N 37°49' W 122°27'1 2.8
2017-Oct-08 21:00N 37°49' W 122°25'3 5.1
2017-Oct-08 20:30N 37°47' W 122°22'3 6.0
2017-Oct-08 20:00N 37°48' W 122°19'2 3.1
2017-Oct-08 19:30N 37°47' W 122°17'0 0.0
2017-Oct-08 19:00N 37°47' W 122°17'0 0.0
2017-Oct-08 18:30N 37°47' W 122°17'0 0.0
2017-Oct-08 16:49N 37°47' W 122°17'0 0.0
2017-Oct-08 16:30N 37°47' W 122°17'0 0.0
2017-Oct-08 16:00N 37°47' W 122°17'0 0.0
2017-Oct-08 15:30N 37°47' W 122°17'0 0.0
2017-Oct-08 15:00N 37°47' W 122°17'0 0.0
2017-Oct-08 14:30N 37°47' W 122°17'0 0.0
2017-Oct-08 14:00N 37°47' W 122°17'0 0.0
2017-Oct-08 00:36N 37°48' W 122°17'0 0.0
2017-Oct-08 00:31N 37°48' W 122°17'0 0.0
2017-Oct-08 00:00N 37°48' W 122°17'3 5.5
2017-Oct-07 23:30N 37°48' W 122°20'3 5.1
2017-Oct-07 23:01N 37°49' W 122°23'1 2.4
2017-Oct-07 22:30N 37°49' W 122°24'0 0.3
2017-Oct-07 22:00N 37°49' W 122°24'0 0.3
2017-Oct-07 21:31N 37°49' W 122°24'1 2.4
2017-Oct-07 21:00N 37°49' W 122°23'4 7.3
2017-Oct-07 20:31N 37°48' W 122°18'1 2.7
2017-Oct-07 20:00N 37°47' W 122°17'0 0.0
2017-Oct-07 19:30N 37°47' W 122°17'0 0.0
2017-Oct-07 15:34N 37°47' W 122°17'0 0.0
2017-Oct-07 15:30N 37°47' W 122°17'0 0.0
2017-Oct-07 15:00N 37°47' W 122°17'0 0.0
2017-Oct-07 14:31N 37°47' W 122°17'0 0.0
2017-Oct-07 14:00N 37°47' W 122°17'0 0.0
2017-Oct-07 13:30N 37°47' W 122°17'0 0.0
2017-Oct-07 00:46N 37°48' W 122°17'1 3.5
2017-Oct-07 00:30N 37°48' W 122°18'3 6.9
2017-Oct-07 00:00N 37°47' W 122°22'1 1.9
2017-Oct-06 23:30N 37°47' W 122°23'2 4.0
2017-Oct-06 23:00N 37°49' W 122°24'2 3.2
2017-Oct-06 22:30N 37°49' W 122°26'1 2.3
2017-Oct-06 22:00N 37°49' W 122°27'1 2.3
2017-Oct-06 21:30N 37°49' W 122°26'2 3.0
2017-Oct-06 21:00N 37°49' W 122°24'2 4.3
2017-Oct-06 20:30N 37°47' W 122°23'0 0.0
2017-Oct-06 20:00N 37°47' W 122°23'2 4.2
2017-Oct-06 19:30N 37°48' W 122°21'3 6.3
2017-Oct-06 19:00N 37°47' W 122°17'0 0.0
2017-Oct-06 15:33N 37°47' W 122°17'0 0.0
2017-Oct-06 15:30N 37°47' W 122°17'0 0.0
2017-Oct-06 04:04N 37°48' W 122°17'0 0.0
2017-Oct-06 04:00N 37°48' W 122°17'3 5.8
2017-Oct-06 03:30N 37°48' W 122°20'2 4.8
2017-Oct-06 03:00N 37°47' W 122°23'0 0.5
2017-Oct-06 02:30N 37°47' W 122°23'2 3.9
2017-Oct-06 02:00N 37°48' W 122°24'2 4.9
2017-Oct-06 01:30N 37°49' W 122°27'2 3.7
2017-Oct-06 01:00N 37°51' W 122°28'2 3.9
2017-Oct-06 00:30N 37°52' W 122°27'2 3.3
2017-Oct-06 00:00N 37°51' W 122°25'2 3.8
2017-Oct-05 23:30N 37°49' W 122°24'2 4.9
2017-Oct-05 23:00N 37°47' W 122°23'0 0.3
2017-Oct-05 22:30N 37°47' W 122°23'3 6.8
2017-Oct-05 22:00N 37°48' W 122°19'2 3.4
2017-Oct-05 21:30N 37°47' W 122°17'0 0.0
2017-Oct-05 18:37N 37°47' W 122°17'0 0.0
2017-Oct-05 18:31N 37°47' W 122°17'0 0.0
2017-Oct-05 18:00N 37°47' W 122°17'0 0.0
2017-Oct-05 17:30N 37°47' W 122°17'0 0.0
2017-Oct-05 17:00N 37°47' W 122°17'0 0.0
2017-Oct-05 15:30N 37°47' W 122°17'0 0.0
2017-Oct-05 04:02N 37°48' W 122°17'0 0.0
2017-Oct-05 04:00N 37°48' W 122°17'0 0.1
2017-Oct-05 03:30N 37°48' W 122°17'2 3.9
2017-Oct-05 03:00N 37°48' W 122°19'4 7.8
2017-Oct-05 02:30N 37°49' W 122°24'1 1.9
2017-Oct-05 02:01N 37°48' W 122°24'3 5.9
2017-Oct-05 01:30N 37°48' W 122°20'3 5.3
2017-Oct-05 01:00N 37°48' W 122°17'0 0.0
2017-Oct-05 00:30N 37°48' W 122°17'0 0.0
2017-Oct-05 00:00N 37°48' W 122°17'0 0.0
2017-Oct-04 23:30N 37°48' W 122°17'0 0.1
2017-Oct-04 23:00N 37°48' W 122°17'  
2017-Oct-01 09:18N 37°48' W 122°17'1 3.3
2017-Oct-01 09:00N 37°47' W 122°18'3 6.5
2017-Oct-01 08:30N 37°48' W 122°22'1 2.5
2017-Oct-01 08:00N 37°47' W 122°23'1 2.7
2017-Oct-01 07:30N 37°48' W 122°23'1 2.9
2017-Oct-01 07:00N 37°49' W 122°25'1 1.9
2017-Oct-01 06:30N 37°49' W 122°26'3 6.1
2017-Oct-01 06:00N 37°47' W 122°23'0 0.5
2017-Oct-01 05:30N 37°47' W 122°23'0 0.0
2017-Oct-01 05:00N 37°47' W 122°23'0 0.0
2017-Oct-01 04:30N 37°47' W 122°23'0 0.0
2017-Oct-01 04:00N 37°47' W 122°23'0 0.0
2017-Oct-01 03:30N 37°47' W 122°23'1 3.0
2017-Oct-01 03:00N 37°47' W 122°21'  
Track history (hours):
 
Tides and Currents Weather Stations Pressure Air Temp Water Temp Dewpoint Dewpoint Depression Visibility Wind Speed Wind Dir Waves Ship Positions

Fume Blanc Commodore

Owner: Commodore Dining Cruises, Alameda, CA. More information available from US FCC via Universal Licensing System and Coast Guard Vessel Documentation Center.

Last reported at 2017-Oct-09 00:14 UTC. Time now 2017-Oct-17 13:47 UTC.
Position N 37°48' W 122°17'.
Warning: this ship's position is 8 days out of date.

Length 26 m; draft 1.5 m.

Type: Passenger vessel. MMSI: 367155780.

Date/timePositionNaut miles runAvg speedWind from/ knotsBaromVisibWave heightAir tempDewpointWater temp
2017-Oct-09 00:14N 37°48' W 122°17'1 2.4
2017-Oct-09 00:00N 37°48' W 122°17'3 6.8
2017-Oct-08 23:30N 37°48' W 122°22'2 4.9
2017-Oct-08 23:00N 37°50' W 122°24'1 1.2
2017-Oct-08 22:30N 37°50' W 122°25'0 0.3
2017-Oct-08 22:00N 37°49' W 122°25'1 3.0
2017-Oct-08 21:30N 37°49' W 122°27'1 2.8
2017-Oct-08 21:00N 37°49' W 122°25'3 5.1
2017-Oct-08 20:30N 37°47' W 122°22'3 6.0
2017-Oct-08 20:00N 37°48' W 122°19'2 3.1
2017-Oct-08 19:30N 37°47' W 122°17'0 0.0
2017-Oct-08 19:00N 37°47' W 122°17'0 0.0
2017-Oct-08 18:30N 37°47' W 122°17'0 0.0
2017-Oct-08 16:49N 37°47' W 122°17'0 0.0
2017-Oct-08 16:30N 37°47' W 122°17'0 0.0
2017-Oct-08 16:00N 37°47' W 122°17'0 0.0
2017-Oct-08 15:30N 37°47' W 122°17'0 0.0
2017-Oct-08 15:00N 37°47' W 122°17'0 0.0
2017-Oct-08 14:30N 37°47' W 122°17'0 0.0
2017-Oct-08 14:00N 37°47' W 122°17'0 0.0
2017-Oct-08 00:36N 37°48' W 122°17'0 0.0
2017-Oct-08 00:31N 37°48' W 122°17'0 0.0
2017-Oct-08 00:00N 37°48' W 122°17'3 5.5
2017-Oct-07 23:30N 37°48' W 122°20'3 5.1
2017-Oct-07 23:01N 37°49' W 122°23'1 2.4
2017-Oct-07 22:30N 37°49' W 122°24'0 0.3
2017-Oct-07 22:00N 37°49' W 122°24'0 0.3
2017-Oct-07 21:31N 37°49' W 122°24'1 2.4
2017-Oct-07 21:00N 37°49' W 122°23'4 7.3
2017-Oct-07 20:31N 37°48' W 122°18'1 2.7
2017-Oct-07 20:00N 37°47' W 122°17'0 0.0
2017-Oct-07 19:30N 37°47' W 122°17'0 0.0
2017-Oct-07 15:34N 37°47' W 122°17'0 0.0
2017-Oct-07 15:30N 37°47' W 122°17'0 0.0
2017-Oct-07 15:00N 37°47' W 122°17'0 0.0
2017-Oct-07 14:31N 37°47' W 122°17'0 0.0
2017-Oct-07 14:00N 37°47' W 122°17'0 0.0
2017-Oct-07 13:30N 37°47' W 122°17'0 0.0
2017-Oct-07 00:46N 37°48' W 122°17'1 3.5
2017-Oct-07 00:30N 37°48' W 122°18'3 6.9
2017-Oct-07 00:00N 37°47' W 122°22'1 1.9
2017-Oct-06 23:30N 37°47' W 122°23'2 4.0
2017-Oct-06 23:00N 37°49' W 122°24'2 3.2
2017-Oct-06 22:30N 37°49' W 122°26'1 2.3
2017-Oct-06 22:00N 37°49' W 122°27'1 2.3
2017-Oct-06 21:30N 37°49' W 122°26'2 3.0
2017-Oct-06 21:00N 37°49' W 122°24'2 4.3
2017-Oct-06 20:30N 37°47' W 122°23'0 0.0
2017-Oct-06 20:00N 37°47' W 122°23'2 4.2
2017-Oct-06 19:30N 37°48' W 122°21'3 6.3
2017-Oct-06 19:00N 37°47' W 122°17'0 0.0
2017-Oct-06 15:33N 37°47' W 122°17'0 0.0
2017-Oct-06 15:30N 37°47' W 122°17'0 0.0
2017-Oct-06 04:04N 37°48' W 122°17'0 0.0
2017-Oct-06 04:00N 37°48' W 122°17'3 5.8
2017-Oct-06 03:30N 37°48' W 122°20'2 4.8
2017-Oct-06 03:00N 37°47' W 122°23'0 0.5
2017-Oct-06 02:30N 37°47' W 122°23'2 3.9
2017-Oct-06 02:00N 37°48' W 122°24'2 4.9
2017-Oct-06 01:30N 37°49' W 122°27'2 3.7
2017-Oct-06 01:00N 37°51' W 122°28'2 3.9
2017-Oct-06 00:30N 37°52' W 122°27'2 3.3
2017-Oct-06 00:00N 37°51' W 122°25'2 3.8
2017-Oct-05 23:30N 37°49' W 122°24'2 4.9
2017-Oct-05 23:00N 37°47' W 122°23'0 0.3
2017-Oct-05 22:30N 37°47' W 122°23'3 6.8
2017-Oct-05 22:00N 37°48' W 122°19'2 3.4
2017-Oct-05 21:30N 37°47' W 122°17'0 0.0
2017-Oct-05 18:37N 37°47' W 122°17'0 0.0
2017-Oct-05 18:31N 37°47' W 122°17'0 0.0
2017-Oct-05 18:00N 37°47' W 122°17'0 0.0
2017-Oct-05 17:30N 37°47' W 122°17'0 0.0
2017-Oct-05 17:00N 37°47' W 122°17'0 0.0
2017-Oct-05 15:30N 37°47' W 122°17'0 0.0
2017-Oct-05 04:02N 37°48' W 122°17'0 0.0
2017-Oct-05 04:00N 37°48' W 122°17'0 0.1
2017-Oct-05 03:30N 37°48' W 122°17'2 3.9
2017-Oct-05 03:00N 37°48' W 122°19'4 7.8
2017-Oct-05 02:30N 37°49' W 122°24'1 1.9
2017-Oct-05 02:01N 37°48' W 122°24'3 5.9
2017-Oct-05 01:30N 37°48' W 122°20'3 5.3
2017-Oct-05 01:00N 37°48' W 122°17'0 0.0
2017-Oct-05 00:30N 37°48' W 122°17'0 0.0
2017-Oct-05 00:00N 37°48' W 122°17'0 0.0
2017-Oct-04 23:30N 37°48' W 122°17'0 0.1
2017-Oct-04 23:00N 37°48' W 122°17'  
2017-Oct-01 09:18N 37°48' W 122°17'1 3.3
2017-Oct-01 09:00N 37°47' W 122°18'3 6.5
2017-Oct-01 08:30N 37°48' W 122°22'1 2.5
2017-Oct-01 08:00N 37°47' W 122°23'1 2.7
2017-Oct-01 07:30N 37°48' W 122°23'1 2.9
2017-Oct-01 07:00N 37°49' W 122°25'1 1.9
2017-Oct-01 06:30N 37°49' W 122°26'3 6.1
2017-Oct-01 06:00N 37°47' W 122°23'0 0.5
2017-Oct-01 05:30N 37°47' W 122°23'0 0.0
2017-Oct-01 05:00N 37°47' W 122°23'0 0.0
2017-Oct-01 04:30N 37°47' W 122°23'0 0.0
2017-Oct-01 04:00N 37°47' W 122°23'0 0.0
2017-Oct-01 03:30N 37°47' W 122°23'1 3.0
2017-Oct-01 03:00N 37°47' W 122°21'  

Dump ship's entire track history